createdAt,value
2023-02-11T00:02:29.447Z,6.97
2023-02-11T00:04:55.849Z,6.98
2023-02-11T00:07:22.363Z,6.98
2023-02-11T00:09:54.328Z,6.98
2023-02-11T00:12:21.172Z,6.98
2023-02-11T00:14:47.836Z,7.03
2023-02-11T00:17:33.446Z,7.05
2023-02-11T00:19:59.938Z,7.08
2023-02-11T00:22:26.544Z,7.07
2023-02-11T00:24:53.299Z,6.98
2023-02-11T00:27:25.598Z,7.05
2023-02-11T00:29:52.173Z,7.13
2023-02-11T00:32:18.620Z,7.19
2023-02-11T00:34:46.243Z,7.24
2023-02-11T00:37:13.596Z,7.25
2023-02-11T00:39:40.103Z,7.25
2023-02-11T00:42:06.564Z,7.23
2023-02-11T00:44:32.999Z,7.25
2023-02-11T00:46:59.488Z,7.23
2023-02-11T00:49:26.005Z,7.17
2023-02-11T00:51:52.533Z,7.27
2023-02-11T00:54:19.116Z,7.30
2023-02-11T00:56:45.629Z,7.36
2023-02-11T00:59:12.075Z,7.34
2023-02-11T01:01:38.598Z,7.31
2023-02-11T01:04:05.153Z,7.27
2023-02-11T01:06:31.676Z,7.25
2023-02-11T01:08:59.137Z,7.23
2023-02-11T01:11:25.692Z,7.16
2023-02-11T01:13:52.204Z,7.22
2023-02-11T01:16:19.886Z,7.14
2023-02-11T01:18:48.004Z,7.13
2023-02-11T01:21:14.790Z,7.13
2023-02-11T01:23:41.505Z,7.12
2023-02-11T01:26:08.028Z,7.08
2023-02-11T01:28:34.596Z,7.09
2023-02-11T01:31:02.587Z,7.07
2023-02-11T01:33:29.567Z,7.05
2023-02-11T01:36:21.459Z,7.05
2023-02-11T01:38:52.399Z,7.00
2023-02-11T01:41:18.948Z,6.99
2023-02-11T01:43:51.331Z,7.00
2023-02-11T01:46:26.612Z,7.03
2023-02-11T01:49:17.457Z,6.98
2023-02-11T01:51:53.591Z,7.01
2023-02-11T01:54:42.820Z,7.03
2023-02-11T01:57:32.393Z,7.04
2023-02-11T02:00:14.097Z,7.07
2023-02-11T02:02:58.737Z,7.06
2023-02-11T02:06:44.878Z,7.04
2023-02-11T02:09:23.969Z,6.98
2023-02-11T02:11:51.070Z,7.04
2023-02-11T02:14:17.907Z,7.03
2023-02-11T02:16:45.125Z,7.09
2023-02-11T02:19:52.071Z,7.11
2023-02-11T02:22:45.454Z,7.11
2023-02-11T02:25:43.110Z,7.15
2023-02-11T02:28:49.818Z,7.16
2023-02-11T02:31:39.114Z,7.20
2023-02-11T02:34:44.318Z,7.18
2023-02-11T02:37:38.088Z,7.15
2023-02-11T02:40:53.449Z,7.02
2023-02-11T02:43:43.811Z,7.05
2023-02-11T02:46:34.271Z,7.05
2023-02-11T02:49:21.059Z,7.09
2023-02-11T02:52:49.171Z,7.02
2023-02-11T02:55:51.047Z,6.91
2023-02-11T02:58:56.609Z,6.85
2023-02-11T03:01:56.003Z,6.80
2023-02-11T03:04:56.770Z,6.72
2023-02-11T03:07:58.749Z,6.69
2023-02-11T03:10:49.951Z,6.64
2023-02-11T03:13:39.164Z,6.63
2023-02-11T03:16:27.232Z,6.61
2023-02-11T03:19:21.711Z,6.56
2023-02-11T03:22:14.109Z,6.68
2023-02-11T03:25:02.370Z,6.64
2023-02-11T03:28:12.481Z,6.76
2023-02-11T03:31:10.588Z,6.78
2023-02-11T03:34:06.518Z,6.77
2023-02-11T03:37:09.715Z,6.80
2023-02-11T03:40:07.333Z,6.83
2023-02-11T03:42:59.304Z,6.83
2023-02-11T03:45:48.587Z,6.79
2023-02-11T03:48:40.986Z,6.79
2023-02-11T03:51:31.518Z,6.76
2023-02-11T03:54:24.238Z,6.74
2023-02-11T03:57:11.121Z,6.72
2023-02-11T03:59:59.090Z,6.67
2023-02-11T04:02:45.883Z,6.69
2023-02-11T04:05:32.974Z,6.66
2023-02-11T04:08:20.290Z,6.68
2023-02-11T04:11:07.094Z,6.72
2023-02-11T04:13:54.005Z,6.74
2023-02-11T04:16:40.825Z,6.80
2023-02-11T04:19:27.662Z,6.82
2023-02-11T04:22:14.456Z,6.84
2023-02-11T04:25:01.192Z,6.85
2023-02-11T04:27:47.976Z,6.80
2023-02-11T04:30:34.815Z,6.91
2023-02-11T04:33:22.141Z,6.92
2023-02-11T04:36:09.041Z,6.92
2023-02-11T04:38:55.816Z,6.94
2023-02-11T04:41:42.560Z,6.95
2023-02-11T04:44:29.680Z,6.94
2023-02-11T04:47:16.469Z,6.90
2023-02-11T04:50:03.972Z,6.94
2023-02-11T04:52:50.768Z,6.95
2023-02-11T04:55:37.571Z,6.91
2023-02-11T04:58:24.382Z,6.76
2023-02-11T05:01:13.846Z,6.95
2023-02-11T05:04:00.879Z,6.90
2023-02-11T05:06:47.636Z,6.95
2023-02-11T05:09:34.396Z,6.92
2023-02-11T05:12:21.793Z,6.93
2023-02-11T05:15:08.752Z,6.93
2023-02-11T05:17:56.126Z,6.97
2023-02-11T05:20:43.882Z,6.98
2023-02-11T05:23:30.631Z,6.90
2023-02-11T05:26:17.915Z,6.94
2023-02-11T05:29:04.743Z,6.97
2023-02-11T05:31:51.498Z,6.95
2023-02-11T05:34:38.331Z,6.99
2023-02-11T05:37:25.173Z,7.00
2023-02-11T05:40:12.023Z,6.98
2023-02-11T05:42:58.941Z,6.93
2023-02-11T05:45:45.757Z,6.96
2023-02-11T05:48:32.754Z,6.95
2023-02-11T05:51:19.589Z,6.94
2023-02-11T05:54:06.421Z,6.94
2023-02-11T05:56:53.712Z,6.94
2023-02-11T05:59:40.801Z,6.97
2023-02-11T06:02:27.740Z,6.94
2023-02-11T06:05:14.535Z,6.93
2023-02-11T06:08:01.252Z,6.95
2023-02-11T06:10:47.968Z,7.00
2023-02-11T06:13:35.366Z,6.99
2023-02-11T06:16:22.264Z,6.99
2023-02-11T06:19:09.263Z,6.99
2023-02-11T06:21:56.554Z,6.97
2023-02-11T06:25:00.477Z,6.96
2023-02-11T06:27:48.313Z,6.93
2023-02-11T06:30:37.170Z,6.87
2023-02-11T06:33:24.028Z,6.95
2023-02-11T06:36:21.274Z,6.94
2023-02-11T06:39:08.248Z,6.94
2023-02-11T06:41:55.399Z,6.99
2023-02-11T06:44:42.345Z,6.97
2023-02-11T06:47:29.160Z,6.93
2023-02-11T06:50:15.990Z,7.01
2023-02-11T06:53:02.746Z,7.05
2023-02-11T06:55:49.837Z,7.20
2023-02-11T06:58:37.568Z,7.24
2023-02-11T07:01:25.242Z,7.26
2023-02-11T07:04:15.824Z,7.27
2023-02-11T07:07:02.620Z,7.24
2023-02-11T07:09:49.344Z,7.27
2023-02-11T07:12:36.122Z,7.28
2023-02-11T07:15:22.833Z,7.26
2023-02-11T07:18:09.641Z,7.30
2023-02-11T07:20:56.406Z,7.28
2023-02-11T07:23:43.677Z,7.31
2023-02-11T07:26:30.475Z,7.28
2023-02-11T07:29:17.291Z,7.25
2023-02-11T07:32:04.207Z,7.30
2023-02-11T07:34:51.105Z,7.30
2023-02-11T07:37:37.931Z,7.32
2023-02-11T07:40:24.732Z,7.31
2023-02-11T07:43:11.618Z,7.31
2023-02-11T07:45:58.642Z,7.07
2023-02-11T07:48:45.831Z,7.34
2023-02-11T07:51:32.636Z,7.33
2023-02-11T07:54:19.389Z,7.33
2023-02-11T07:57:06.210Z,7.37
2023-02-11T07:59:53.643Z,7.36
2023-02-11T08:02:40.384Z,7.36
2023-02-11T08:05:27.233Z,7.38
2023-02-11T08:08:14.101Z,7.38
2023-02-11T08:11:12.649Z,7.40
2023-02-11T08:13:59.379Z,7.38
2023-02-11T08:16:46.187Z,7.38
2023-02-11T08:19:35.148Z,7.41
2023-02-11T08:22:22.068Z,7.44
2023-02-11T08:25:08.889Z,7.49
2023-02-11T08:27:55.725Z,7.53
2023-02-11T08:30:42.573Z,7.46
2023-02-11T08:33:29.367Z,7.45
2023-02-11T08:36:19.777Z,7.49
2023-02-11T08:39:19.306Z,7.51
2023-02-11T08:42:06.913Z,7.51
2023-02-11T08:44:53.725Z,7.54
2023-02-11T08:47:40.634Z,7.49
2023-02-11T08:50:28.373Z,7.61
2023-02-11T08:53:15.167Z,7.66
2023-02-11T08:56:02.367Z,7.67
2023-02-11T08:58:47.538Z,7.72
2023-02-11T09:01:33.260Z,7.69
2023-02-11T09:04:18.562Z,7.68
2023-02-11T09:07:05.739Z,7.73
2023-02-11T09:09:42.056Z,7.76
2023-02-11T09:12:27.265Z,7.72
2023-02-11T09:14:53.923Z,7.70
2023-02-11T09:17:20.502Z,7.71
2023-02-11T09:19:47.126Z,7.65
2023-02-11T09:22:13.589Z,7.69
2023-02-11T09:24:40.118Z,7.69
2023-02-11T09:27:06.612Z,7.70
2023-02-11T09:29:33.098Z,7.74
2023-02-11T09:31:59.692Z,7.76
2023-02-11T09:34:29.219Z,7.78
2023-02-11T09:36:55.765Z,7.80
2023-02-11T09:39:22.592Z,7.79
2023-02-11T09:42:10.319Z,7.80
2023-02-11T09:44:38.782Z,7.92
2023-02-11T09:47:15.687Z,7.92
2023-02-11T09:49:58.241Z,7.91
2023-02-11T09:52:44.400Z,7.86
2023-02-11T09:55:37.434Z,7.94
2023-02-11T09:58:11.145Z,7.93
2023-02-11T10:00:44.638Z,7.97
2023-02-11T10:03:45.308Z,7.95
2023-02-11T10:06:39.828Z,7.99
2023-02-11T10:09:34.167Z,8.01
2023-02-11T10:12:28.770Z,8.06
2023-02-11T10:15:08.137Z,8.10
2023-02-11T10:17:52.930Z,8.15
2023-02-11T10:20:32.468Z,8.08
2023-02-11T10:23:01.766Z,8.18
2023-02-11T10:25:36.359Z,8.22
2023-02-11T10:28:13.036Z,8.24
2023-02-11T10:30:53.410Z,8.26
2023-02-11T10:33:33.704Z,8.24
2023-02-11T10:36:00.378Z,8.28
2023-02-11T10:38:27.634Z,8.20
2023-02-11T10:40:54.201Z,8.25
2023-02-11T10:43:26.435Z,8.28
2023-02-11T10:45:55.160Z,8.30
2023-02-11T10:48:45.138Z,8.34
2023-02-11T10:51:20.279Z,8.41
2023-02-11T10:53:49.469Z,8.49
2023-02-11T10:56:28.056Z,8.45
2023-02-11T10:59:00.777Z,8.53
2023-02-11T11:01:50.075Z,8.56
2023-02-11T11:04:35.176Z,8.61
2023-02-11T11:07:23.387Z,8.60
2023-02-11T11:09:56.577Z,8.64
2023-02-11T11:12:47.344Z,8.59
2023-02-11T11:15:19.843Z,8.57
2023-02-11T11:17:46.557Z,8.57
2023-02-11T11:20:33.403Z,8.67
2023-02-11T11:23:15.854Z,8.67
2023-02-11T11:25:59.428Z,8.74
2023-02-11T11:28:28.613Z,8.81
2023-02-11T11:30:57.023Z,8.82
2023-02-11T11:33:28.331Z,8.79
2023-02-11T11:36:07.482Z,8.77
2023-02-11T11:38:37.772Z,8.71
2023-02-11T11:41:23.291Z,8.72
2023-02-11T11:44:17.331Z,8.66
2023-02-11T11:46:46.263Z,8.68
2023-02-11T11:49:30.111Z,8.71
2023-02-11T11:52:20.697Z,8.67
2023-02-11T11:54:56.078Z,8.70
2023-02-11T11:57:28.279Z,8.71
2023-02-11T11:59:54.958Z,8.72
2023-02-11T12:03:04.748Z,8.72
2023-02-11T12:05:54.096Z,8.71
2023-02-11T12:08:37.514Z,8.73
2023-02-11T12:11:16.137Z,8.79
2023-02-11T12:13:56.893Z,8.78
2023-02-11T12:16:35.814Z,8.78
2023-02-11T12:19:36.378Z,8.75
2023-02-11T12:22:06.065Z,8.73
2023-02-11T12:24:32.453Z,8.72
2023-02-11T12:27:13.158Z,8.70
2023-02-11T12:30:13.152Z,8.64
2023-02-11T12:32:43.203Z,8.66
2023-02-11T12:35:38.329Z,8.76
2023-02-11T12:38:08.266Z,8.71
2023-02-11T12:40:40.729Z,8.68
2023-02-11T12:43:16.592Z,8.69
2023-02-11T12:45:58.984Z,8.68
2023-02-11T12:48:35.847Z,8.64
2023-02-11T12:51:21.619Z,8.66
2023-02-11T12:54:10.165Z,8.60
2023-02-11T12:56:45.011Z,8.58
2023-02-11T12:59:29.120Z,8.68
2023-02-11T13:01:57.797Z,8.75
2023-02-11T13:04:35.218Z,8.77
2023-02-11T13:07:14.183Z,8.80
2023-02-11T13:09:50.882Z,8.83
2023-02-11T13:12:36.025Z,8.84
2023-02-11T13:15:07.652Z,8.84
2023-02-11T13:17:41.443Z,8.77
2023-02-11T13:20:21.489Z,8.87
2023-02-11T13:23:03.217Z,8.91
2023-02-11T13:25:44.586Z,8.85
2023-02-11T13:28:23.890Z,8.83
2023-02-11T13:31:01.728Z,8.76
2023-02-11T13:33:33.102Z,8.76
2023-02-11T13:35:59.483Z,8.75
2023-02-11T13:38:28.558Z,8.79
2023-02-11T13:41:24.636Z,8.80
2023-02-11T13:44:25.567Z,8.78
2023-02-11T13:47:02.112Z,8.76
2023-02-11T13:49:49.128Z,8.78
2023-02-11T13:52:34.935Z,8.81
2023-02-11T13:55:09.990Z,8.84
2023-02-11T13:57:38.599Z,8.82
2023-02-11T14:00:26.716Z,8.99
2023-02-11T14:03:30.035Z,9.01
2023-02-11T14:06:27.483Z,9.05
2023-02-11T14:09:09.349Z,9.05
2023-02-11T14:11:44.913Z,9.07
2023-02-11T14:14:19.099Z,9.05
2023-02-11T14:17:06.461Z,8.71
2023-02-11T14:19:40.288Z,8.97
2023-02-11T14:22:06.697Z,9.03
2023-02-11T14:24:33.065Z,9.02
2023-02-11T14:27:09.834Z,9.05
2023-02-11T14:29:50.878Z,9.05
2023-02-11T14:32:53.039Z,9.04
2023-02-11T14:35:38.507Z,9.07
2023-02-11T14:38:19.161Z,9.09
2023-02-11T14:41:04.466Z,9.09
2023-02-11T14:43:48.015Z,9.10
2023-02-11T14:46:19.670Z,9.10
2023-02-11T14:48:48.823Z,9.14
2023-02-11T14:51:32.862Z,9.18
2023-02-11T14:54:18.602Z,9.16
2023-02-11T14:56:46.644Z,9.14
2023-02-11T14:59:17.437Z,9.20
2023-02-11T15:01:48.737Z,9.20
2023-02-11T15:04:23.543Z,9.18
2023-02-11T15:06:50.457Z,9.16
2023-02-11T15:09:23.959Z,9.21
2023-02-11T15:11:51.813Z,9.21
2023-02-11T15:14:24.933Z,9.20
2023-02-11T15:16:55.929Z,9.20
2023-02-11T15:19:34.589Z,9.23
2023-02-11T15:22:04.711Z,9.23
2023-02-11T15:24:33.247Z,9.23
2023-02-11T15:27:00.425Z,9.18
2023-02-11T15:29:34.287Z,9.20
2023-02-11T15:32:06.791Z,9.19
2023-02-11T15:34:33.767Z,9.20
2023-02-11T15:37:00.329Z,9.21
2023-02-11T15:39:33.350Z,9.22
2023-02-11T15:42:26.801Z,9.24
2023-02-11T15:45:15.549Z,9.23
2023-02-11T15:47:49.380Z,9.17
2023-02-11T15:50:40.513Z,9.22
2023-02-11T15:53:26.935Z,9.22
2023-02-11T15:56:18.203Z,9.16
2023-02-11T15:58:47.613Z,9.15
2023-02-11T16:01:14.068Z,9.17
2023-02-11T16:03:42.193Z,9.13
2023-02-11T16:06:22.351Z,9.12
2023-02-11T16:11:52.180Z,9.10
2023-02-11T16:14:27.304Z,9.10
2023-02-11T16:17:05.194Z,9.18
2023-02-11T16:19:33.910Z,9.17
2023-02-11T16:22:10.419Z,9.17
2023-02-11T16:30:37.372Z,9.18
2023-02-11T16:33:05.360Z,9.16
2023-02-11T16:35:32.721Z,9.16
2023-02-11T16:37:59.175Z,9.14
2023-02-11T16:40:25.627Z,9.18
2023-02-11T16:42:53.294Z,9.18
2023-02-11T16:45:19.808Z,9.18
2023-02-11T16:47:46.445Z,9.20
2023-02-11T16:50:22.170Z,9.18
2023-02-11T16:52:48.939Z,9.18
2023-02-11T16:55:15.449Z,9.15
2023-02-11T16:57:41.965Z,9.16
2023-02-11T17:00:16.850Z,9.19
2023-02-11T17:02:43.519Z,9.19
2023-02-11T17:05:19.910Z,9.13
2023-02-11T17:07:46.732Z,9.20
2023-02-11T17:10:23.280Z,9.19
2023-02-11T17:12:51.009Z,9.18
2023-02-11T17:15:17.465Z,9.13
2023-02-11T17:17:44.439Z,9.09
2023-02-11T17:20:13.274Z,9.14
2023-02-11T17:22:40.321Z,9.14
2023-02-11T17:25:06.996Z,9.13
2023-02-11T17:27:34.518Z,9.15
2023-02-11T17:30:01.122Z,9.15
2023-02-11T17:32:27.639Z,9.20
2023-02-11T17:34:54.509Z,9.17
2023-02-11T17:37:20.965Z,9.19
2023-02-11T17:39:49.221Z,9.20
2023-02-11T17:42:15.768Z,9.18
2023-02-11T17:44:44.055Z,9.15
2023-02-11T17:47:10.946Z,9.14
2023-02-11T17:49:37.403Z,9.12
2023-02-11T17:52:04.004Z,9.12
2023-02-11T17:54:30.437Z,9.08
2023-02-11T17:56:58.413Z,9.09
2023-02-11T17:59:25.844Z,9.08
2023-02-11T18:01:52.404Z,9.01
2023-02-11T18:04:20.108Z,9.00
2023-02-11T18:06:47.127Z,8.99
2023-02-11T18:09:13.669Z,9.01
2023-02-11T18:11:41.847Z,8.98
2023-02-11T18:14:09.992Z,8.97
2023-02-11T18:16:38.921Z,8.88
2023-02-11T18:19:07.410Z,8.87
2023-02-11T18:21:33.934Z,8.88
2023-02-11T18:24:06.052Z,8.86
2023-02-11T18:26:33.132Z,8.84
2023-02-11T18:29:00.419Z,8.90
2023-02-11T18:31:27.908Z,8.91
2023-02-11T18:33:54.360Z,8.92
2023-02-11T18:36:22.132Z,8.85
2023-02-11T18:38:48.611Z,8.80
2023-02-11T18:41:15.171Z,8.84
2023-02-11T18:43:42.925Z,8.74
2023-02-11T18:46:12.373Z,8.70
2023-02-11T18:48:39.384Z,8.68
2023-02-11T18:51:14.941Z,8.62
2023-02-11T18:53:42.088Z,8.62
2023-02-11T18:56:14.214Z,8.60
2023-02-11T18:58:40.758Z,8.56
2023-02-11T19:01:14.693Z,8.57
2023-02-11T19:03:41.277Z,8.53
2023-02-11T19:06:13.212Z,8.46
2023-02-11T19:08:39.688Z,8.44
2023-02-11T19:11:06.153Z,8.56
2023-02-11T19:13:32.605Z,8.57
2023-02-11T19:15:59.026Z,8.59
2023-02-11T19:18:25.460Z,8.54
2023-02-11T19:20:51.879Z,8.47
2023-02-11T19:23:18.356Z,8.52
2023-02-11T19:25:47.287Z,8.50
2023-02-11T19:28:14.918Z,8.46
2023-02-11T19:30:41.711Z,8.41
2023-02-11T19:33:10.192Z,8.46
2023-02-11T19:35:36.842Z,8.46
2023-02-11T19:38:05.088Z,8.44
2023-02-11T19:40:31.998Z,8.49
2023-02-11T19:42:58.572Z,8.51
2023-02-11T19:45:26.784Z,8.49
2023-02-11T19:47:56.730Z,8.44
2023-02-11T19:50:23.385Z,8.44
2023-02-11T19:52:49.949Z,8.49
2023-02-11T19:55:16.534Z,8.49
2023-02-11T19:57:43.044Z,8.57
2023-02-11T20:00:11.031Z,8.61
2023-02-11T20:02:39.300Z,8.58
2023-02-11T20:05:06.518Z,8.56
2023-02-11T20:07:33.074Z,8.56
2023-02-11T20:09:59.950Z,8.55
2023-02-11T20:12:26.528Z,8.49
2023-02-11T20:14:53.004Z,8.49
2023-02-11T20:17:19.495Z,8.48
2023-02-11T20:19:45.988Z,8.47
2023-02-11T20:22:12.466Z,8.46
2023-02-11T20:24:38.931Z,8.44
2023-02-11T20:27:08.224Z,8.42
2023-02-11T20:29:34.658Z,8.42
2023-02-11T20:32:02.846Z,8.48
2023-02-11T20:34:29.529Z,8.47
2023-02-11T20:36:56.373Z,8.49
2023-02-11T20:39:24.347Z,8.48
2023-02-11T20:41:51.656Z,8.48
2023-02-11T20:44:18.696Z,8.48
2023-02-11T20:46:46.608Z,8.43
2023-02-11T20:49:19.984Z,8.46
2023-02-11T20:51:46.644Z,8.48
2023-02-11T20:54:17.010Z,8.51
2023-02-11T20:56:46.154Z,8.48
2023-02-11T20:59:14.343Z,8.48
2023-02-11T21:01:43.567Z,8.50
2023-02-11T21:04:15.274Z,8.53
2023-02-11T21:06:45.665Z,8.57
2023-02-11T21:09:16.730Z,8.62
2023-02-11T21:11:43.320Z,8.67
2023-02-11T21:14:11.037Z,8.74
2023-02-11T21:16:38.098Z,8.66
2023-02-11T21:19:05.498Z,8.71
2023-02-11T21:21:34.346Z,8.75
2023-02-11T21:24:01.079Z,8.78
2023-02-11T21:26:27.575Z,8.81
2023-02-11T21:28:55.063Z,8.79
2023-02-11T21:31:28.329Z,8.82
2023-02-11T21:33:55.889Z,8.78
2023-02-11T21:36:23.551Z,8.80
2023-02-11T21:38:50.507Z,8.79
2023-02-11T21:41:18.150Z,8.79
2023-02-11T21:43:44.894Z,8.80
2023-02-11T21:46:15.432Z,8.75
2023-02-11T21:48:42.338Z,8.73
2023-02-11T21:51:13.072Z,8.76
2023-02-11T21:53:39.552Z,8.72
2023-02-11T21:56:11.513Z,8.75
2023-02-11T21:58:38.028Z,8.77
2023-02-11T22:01:16.046Z,8.80
2023-02-11T22:03:43.015Z,8.82
2023-02-11T22:06:12.054Z,8.82
2023-02-11T22:08:39.159Z,8.84
2023-02-11T22:11:07.524Z,8.80
2023-02-11T22:13:34.610Z,8.83
2023-02-11T22:16:04.418Z,8.81
2023-02-11T22:18:31.201Z,8.81
2023-02-11T22:21:02.297Z,8.80
2023-02-11T22:23:29.692Z,8.84
2023-02-11T22:25:57.287Z,8.80
2023-02-11T22:28:25.918Z,8.81
2023-02-11T22:30:54.623Z,8.75
2023-02-11T22:33:22.590Z,8.78
2023-02-11T22:35:49.305Z,8.82
2023-02-11T22:38:15.727Z,8.83
2023-02-11T22:40:45.022Z,8.80
2023-02-11T22:43:11.483Z,8.73
2023-02-11T22:45:38.047Z,8.72
2023-02-11T22:48:04.822Z,8.71
2023-02-11T22:50:31.286Z,8.75
2023-02-11T22:52:57.788Z,8.55
2023-02-11T22:55:24.306Z,8.72
2023-02-11T22:57:50.783Z,8.66
2023-02-11T23:00:17.782Z,8.62
2023-02-11T23:02:44.268Z,8.66
2023-02-11T23:05:10.796Z,8.69
2023-02-11T23:07:37.273Z,8.71
2023-02-11T23:10:04.268Z,8.71
2023-02-11T23:12:30.758Z,8.67
2023-02-11T23:14:57.256Z,8.80
2023-02-11T23:17:24.517Z,8.82
2023-02-11T23:19:51.101Z,8.84
2023-02-11T23:22:17.550Z,8.83
2023-02-11T23:24:43.955Z,8.84
2023-02-11T23:27:10.430Z,8.91
2023-02-11T23:29:36.883Z,8.87
2023-02-11T23:32:03.455Z,8.88
2023-02-11T23:34:29.896Z,8.86
2023-02-11T23:36:57.617Z,8.85
2023-02-11T23:39:24.081Z,8.81
2023-02-11T23:41:53.030Z,8.81
2023-02-11T23:44:19.462Z,8.76
2023-02-11T23:46:45.909Z,8.81
2023-02-11T23:49:12.983Z,8.77
2023-02-11T23:51:39.479Z,8.78
2023-02-11T23:54:05.958Z,8.78
2023-02-11T23:56:32.501Z,8.77
2023-02-11T23:58:59.312Z,8.71
